createdAt,value
2022-09-03T00:02:40.335Z,101442.66
2022-09-03T00:05:55.932Z,101447.94
2022-09-03T00:09:08.485Z,101460.63
2022-09-03T00:12:37.134Z,101448.34
2022-09-03T00:15:40.575Z,101445.00
2022-09-03T00:18:48.829Z,101450.69
2022-09-03T00:22:07.558Z,101440.50
2022-09-03T00:25:15.156Z,101441.06
2022-09-03T00:28:24.580Z,101434.94
2022-09-03T00:31:38.523Z,101454.53
2022-09-03T00:34:45.540Z,101451.94
2022-09-03T00:37:49.186Z,101438.69
2022-09-03T00:40:54.870Z,101445.44
2022-09-03T00:44:06.168Z,101437.19
2022-09-03T00:47:13.843Z,101435.84
2022-09-03T00:50:31.075Z,101432.59
2022-09-03T00:53:56.248Z,101439.09
2022-09-03T00:57:15.921Z,101441.59
2022-09-03T01:00:19.972Z,101441.59
2022-09-03T01:03:55.804Z,101445.25
2022-09-03T01:07:14.412Z,101445.84
2022-09-03T01:10:49.675Z,101447.31
2022-09-03T01:14:02.758Z,101439.94
2022-09-03T01:17:21.551Z,101443.34
2022-09-03T01:20:29.946Z,101444.13
2022-09-03T01:23:54.995Z,101445.34
2022-09-03T01:27:40.398Z,101444.03
2022-09-03T01:30:51.512Z,101444.88
2022-09-03T01:34:01.854Z,101426.56
2022-09-03T01:37:32.884Z,101441.44
2022-09-03T01:41:20.984Z,101431.13
2022-09-03T01:44:53.909Z,101439.72
2022-09-03T01:48:04.041Z,101423.53
2022-09-03T01:51:12.322Z,101438.47
2022-09-03T01:54:27.653Z,101434.69
2022-09-03T01:57:56.305Z,101429.34
2022-09-03T02:01:11.236Z,101428.97
2022-09-03T02:04:23.526Z,101424.50
2022-09-03T02:07:33.720Z,101432.50
2022-09-03T02:10:44.298Z,101421.56
2022-09-03T02:13:53.082Z,101420.69
2022-09-03T02:17:00.701Z,101416.28
2022-09-03T02:20:12.017Z,101409.09
2022-09-03T02:23:15.552Z,101420.47
2022-09-03T02:26:22.510Z,101424.25
2022-09-03T02:29:25.325Z,101424.91
2022-09-03T02:32:29.113Z,101422.59
2022-09-03T02:35:31.283Z,101422.34
2022-09-03T02:38:34.093Z,101424.25
2022-09-03T02:41:36.145Z,101424.13
2022-09-03T02:44:42.836Z,101429.53
2022-09-03T02:47:48.150Z,101420.47
2022-09-03T02:50:50.466Z,101417.13
2022-09-03T02:53:52.628Z,101425.97
2022-09-03T02:56:54.806Z,101419.84
2022-09-03T02:59:56.899Z,101414.56
2022-09-03T03:02:59.419Z,101423.88
2022-09-03T03:06:03.888Z,101418.19
2022-09-03T03:09:06.037Z,101418.84
2022-09-03T03:12:10.457Z,101426.41
2022-09-03T03:15:12.591Z,101408.56
2022-09-03T03:18:15.436Z,101414.56
2022-09-03T03:21:19.052Z,101419.22
2022-09-03T03:24:21.194Z,101408.50
2022-09-03T03:27:24.155Z,101400.97
2022-09-03T03:30:26.595Z,101395.91
2022-09-03T03:33:28.729Z,101399.88
2022-09-03T03:36:33.548Z,101403.97
2022-09-03T03:39:35.757Z,101419.66
2022-09-03T03:42:38.179Z,101429.66
2022-09-03T03:45:40.206Z,101434.69
2022-09-03T03:48:42.175Z,101392.19
2022-09-03T03:51:44.530Z,101425.50
2022-09-03T03:54:46.595Z,101422.69
2022-09-03T03:57:48.821Z,101419.75
2022-09-03T04:00:53.697Z,101431.94
2022-09-03T04:03:56.706Z,101421.44
2022-09-03T04:06:59.279Z,101408.22
2022-09-03T04:10:10.744Z,101432.16
2022-09-03T04:13:12.980Z,101430.09
2022-09-03T04:16:21.313Z,101426.06
2022-09-03T04:19:24.377Z,101413.19
2022-09-03T04:22:29.782Z,101418.75
2022-09-03T04:25:32.200Z,101420.75
2022-09-03T04:28:35.091Z,101423.44
2022-09-03T04:31:38.928Z,101420.06
2022-09-03T04:34:42.302Z,101427.28
2022-09-03T04:37:44.410Z,101442.91
2022-09-03T04:40:52.823Z,101441.44
2022-09-03T04:43:56.680Z,101460.28
2022-09-03T04:46:58.752Z,101463.41
2022-09-03T04:50:00.885Z,101462.81
2022-09-03T04:53:07.985Z,101459.00
2022-09-03T04:56:19.513Z,101460.97
2022-09-03T04:59:21.882Z,101469.28
2022-09-03T05:02:24.096Z,101456.59
2022-09-03T05:05:26.206Z,101439.16
2022-09-03T05:08:28.446Z,101452.84
2022-09-03T05:11:30.757Z,101453.03
2022-09-03T05:14:32.928Z,101456.22
2022-09-03T05:17:37.671Z,101465.25
2022-09-03T05:20:39.976Z,101450.81
2022-09-03T05:23:44.911Z,101467.25
2022-09-03T05:26:47.173Z,101460.81
2022-09-03T05:29:50.127Z,101461.19
2022-09-03T05:32:52.465Z,101459.03
2022-09-03T05:36:00.858Z,101460.28
2022-09-03T05:39:03.231Z,101458.47
2022-09-03T05:42:05.447Z,101458.22
2022-09-03T05:45:11.379Z,101463.50
2022-09-03T05:48:14.476Z,101459.16
2022-09-03T05:51:18.471Z,101456.50
2022-09-03T05:54:20.546Z,101451.91
2022-09-03T05:57:22.568Z,101468.69
2022-09-03T06:00:24.784Z,101478.25
2022-09-03T06:03:27.253Z,101484.16
2022-09-03T06:06:32.784Z,101488.06
2022-09-03T06:09:34.864Z,101476.06
2022-09-03T06:12:37.240Z,101481.25
2022-09-03T06:15:39.679Z,101468.00
2022-09-03T06:18:41.962Z,101475.38
2022-09-03T06:21:45.811Z,101481.25
2022-09-03T06:24:48.116Z,101463.78
2022-09-03T06:27:50.875Z,101471.50
2022-09-03T06:30:53.956Z,101474.28
2022-09-03T06:33:59.637Z,101470.84
2022-09-03T06:37:03.122Z,101451.09
2022-09-03T06:40:05.557Z,101477.75
2022-09-03T06:43:07.835Z,101490.75
2022-09-03T06:46:15.655Z,101468.66
2022-09-03T06:49:18.235Z,101490.09
2022-09-03T06:52:20.355Z,101492.13
2022-09-03T06:55:23.015Z,101486.44
2022-09-03T06:58:29.165Z,101504.94
2022-09-03T07:01:33.394Z,101500.47
2022-09-03T07:04:35.631Z,101497.75
2022-09-03T07:07:38.908Z,101516.06
2022-09-03T07:10:41.099Z,101526.13
2022-09-03T07:13:45.519Z,101539.41
2022-09-03T07:16:49.109Z,101541.25
2022-09-03T07:19:51.378Z,101532.19
2022-09-03T07:22:57.216Z,101540.91
2022-09-03T07:26:01.549Z,101540.28
2022-09-03T07:29:05.336Z,101538.44
2022-09-03T07:32:07.390Z,101525.19
2022-09-03T07:35:09.629Z,101519.09
2022-09-03T07:38:11.881Z,101547.00
2022-09-03T07:41:17.627Z,101550.13
2022-09-03T07:44:31.306Z,101549.28
2022-09-03T07:47:34.709Z,101545.31
2022-09-03T07:50:39.430Z,101556.66
2022-09-03T07:53:41.566Z,101539.97
2022-09-03T07:56:43.709Z,101552.81
2022-09-03T07:59:45.945Z,101548.44
2022-09-03T08:02:47.995Z,101556.38
2022-09-03T08:05:50.079Z,101564.97
2022-09-03T08:09:03.737Z,101564.72
2022-09-03T08:12:07.924Z,101556.75
2022-09-03T08:15:10.317Z,101566.00
2022-09-03T08:18:12.624Z,101557.34
2022-09-03T08:21:17.527Z,101552.50
2022-09-03T08:24:21.953Z,101552.69
2022-09-03T08:27:25.567Z,101561.16
2022-09-03T08:30:28.334Z,101567.69
2022-09-03T08:33:39.433Z,101573.38
2022-09-03T08:36:41.649Z,101563.63
2022-09-03T08:39:44.105Z,101565.47
2022-09-03T08:43:12.435Z,101573.34
2022-09-03T08:46:14.773Z,101540.53
2022-09-03T08:49:31.625Z,101559.16
2022-09-03T08:52:49.300Z,101553.28
2022-09-03T08:55:53.958Z,101547.78
2022-09-03T08:58:57.004Z,101573.59
2022-09-03T09:02:07.222Z,101570.00
2022-09-03T09:05:16.449Z,101567.06
2022-09-03T09:08:50.362Z,101560.50
2022-09-03T09:12:14.292Z,101549.56
2022-09-03T09:15:40.061Z,101562.16
2022-09-03T09:18:48.140Z,101536.31
2022-09-03T09:21:59.290Z,101560.75
2022-09-03T09:25:09.153Z,101559.47
2022-09-03T09:28:20.272Z,101564.16
2022-09-03T09:31:22.597Z,101549.84
2022-09-03T09:34:25.068Z,101542.84
2022-09-03T09:37:27.634Z,101551.03
2022-09-03T09:40:36.238Z,101540.75
2022-09-03T09:43:39.365Z,101544.72
2022-09-03T09:46:43.108Z,101541.13
2022-09-03T09:49:59.865Z,101549.75
2022-09-03T09:53:14.541Z,101518.47
2022-09-03T09:56:24.682Z,101543.34
2022-09-03T09:59:26.801Z,101540.34
2022-09-03T10:02:29.209Z,101527.63
2022-09-03T10:05:36.983Z,101533.53
2022-09-03T10:08:39.023Z,101541.59
2022-09-03T10:11:45.579Z,101536.78
2022-09-03T10:14:55.993Z,101538.00
2022-09-03T10:18:15.343Z,101538.41
2022-09-03T10:21:41.435Z,101537.88
2022-09-03T10:24:59.626Z,101529.94
2022-09-03T10:28:02.309Z,101532.59
2022-09-03T10:31:25.944Z,101535.69
2022-09-03T10:34:37.326Z,101546.19
2022-09-03T10:37:45.230Z,101545.31
2022-09-03T10:41:01.034Z,101535.13
2022-09-03T10:44:28.441Z,101544.78
2022-09-03T10:47:44.512Z,101529.25
2022-09-03T10:50:53.198Z,101531.81
2022-09-03T10:54:13.808Z,101537.69
2022-09-03T10:57:49.698Z,101538.84
2022-09-03T11:00:58.342Z,101531.66
2022-09-03T11:04:16.837Z,101533.91
2022-09-03T11:07:24.241Z,101538.84
2022-09-03T11:10:31.148Z,101535.13
2022-09-03T11:14:01.332Z,101521.63
2022-09-03T11:17:26.582Z,101525.13
2022-09-03T11:20:30.463Z,101521.16
2022-09-03T11:23:37.526Z,101524.34
2022-09-03T11:26:43.747Z,101524.63
2022-09-03T11:30:04.116Z,101539.13
2022-09-03T11:33:11.517Z,101530.41
2022-09-03T11:36:13.929Z,101524.72
2022-09-03T11:39:38.993Z,101532.44
2022-09-03T11:42:43.009Z,101530.91
2022-09-03T11:45:45.190Z,101522.31
2022-09-03T11:48:55.665Z,101528.34
2022-09-03T11:52:10.106Z,101530.38
2022-09-03T11:55:12.336Z,101519.66
2022-09-03T11:58:27.504Z,101509.59
2022-09-03T12:01:31.297Z,101511.69
2022-09-03T12:05:16.168Z,101515.84
2022-09-03T12:08:36.209Z,101513.22
2022-09-03T12:12:13.437Z,101516.59
2022-09-03T12:15:23.955Z,101503.38
2022-09-03T12:18:31.346Z,101499.13
2022-09-03T12:21:40.286Z,101500.00
2022-09-03T12:24:44.178Z,101500.03
2022-09-03T12:27:46.952Z,101501.75
2022-09-03T12:30:54.378Z,101495.09
2022-09-03T12:33:59.782Z,101493.63
2022-09-03T12:37:01.947Z,101497.50
2022-09-03T12:40:05.864Z,101495.16
2022-09-03T12:46:40.281Z,101485.19
2022-09-03T12:49:47.308Z,101484.94
2022-09-03T12:52:54.065Z,101479.72
2022-09-03T12:55:59.274Z,101478.00
2022-09-03T12:59:11.089Z,101486.94
2022-09-03T13:02:20.746Z,101465.84
2022-09-03T13:05:36.316Z,101495.66
2022-09-03T13:09:03.481Z,101491.06
2022-09-03T13:12:06.265Z,101487.50
2022-09-03T13:15:10.954Z,101492.53
2022-09-03T13:18:33.107Z,101499.81
2022-09-03T13:21:47.406Z,101495.41
2022-09-03T13:25:12.753Z,101488.84
2022-09-03T13:28:52.833Z,101492.44
2022-09-03T13:32:26.347Z,101490.66
2022-09-03T13:35:52.048Z,101482.03
2022-09-03T13:39:06.447Z,101491.28
2022-09-03T13:42:18.492Z,101480.97
2022-09-03T13:45:35.978Z,101475.66
2022-09-03T13:49:02.368Z,101479.19
2022-09-03T13:52:09.380Z,101478.25
2022-09-03T13:55:23.349Z,101485.19
2022-09-03T13:58:31.629Z,101487.47
2022-09-03T14:02:05.053Z,101489.78
2022-09-03T14:05:13.152Z,101491.63
2022-09-03T14:08:34.040Z,101490.34
2022-09-03T14:11:57.837Z,101490.19
2022-09-03T14:15:05.784Z,101494.88
2022-09-03T14:18:15.754Z,101467.56
2022-09-03T14:21:36.126Z,101488.00
2022-09-03T14:24:56.004Z,101487.19
2022-09-03T14:28:20.492Z,101486.06
2022-09-03T14:31:38.044Z,101489.16
2022-09-03T14:35:17.510Z,101499.03
2022-09-03T14:38:35.053Z,101496.97
2022-09-03T14:41:50.728Z,101488.38
2022-09-03T14:44:59.897Z,101485.88
2022-09-03T14:48:23.561Z,101496.00
2022-09-03T14:51:53.372Z,101493.22
2022-09-03T14:55:14.257Z,101500.34
2022-09-03T14:58:16.263Z,101494.22
2022-09-03T15:01:29.575Z,101501.78
2022-09-03T15:05:14.914Z,101493.13
2022-09-03T15:09:04.399Z,101477.41
2022-09-03T15:12:37.587Z,101487.13
2022-09-03T15:15:42.856Z,101483.28
2022-09-03T15:19:23.571Z,101489.84
2022-09-03T15:22:28.558Z,101490.91
2022-09-03T15:25:59.624Z,101488.59
2022-09-03T15:29:15.846Z,101486.28
2022-09-03T15:32:37.097Z,101485.69
2022-09-03T15:35:45.599Z,101483.44
2022-09-03T15:38:58.575Z,101474.38
2022-09-03T15:42:06.642Z,101486.31
2022-09-03T15:45:32.822Z,101482.34
2022-09-03T15:48:45.651Z,101488.22
2022-09-03T15:52:29.216Z,101491.31
2022-09-03T15:55:43.556Z,101475.34
2022-09-03T15:59:10.589Z,101487.16
2022-09-03T16:02:24.674Z,101487.03
2022-09-03T16:05:37.121Z,101487.84
2022-09-03T16:08:53.994Z,101480.72
2022-09-03T16:12:05.106Z,101482.44
2022-09-03T16:15:14.170Z,101484.31
2022-09-03T16:18:40.127Z,101486.03
2022-09-03T16:22:17.471Z,101486.25
2022-09-03T16:25:23.317Z,101490.00
2022-09-03T16:28:42.378Z,101491.84
2022-09-03T16:31:56.427Z,101488.88
2022-09-03T16:35:13.714Z,101488.22
2022-09-03T16:38:18.897Z,101490.91
2022-09-03T16:41:48.538Z,101494.34
2022-09-03T16:45:09.016Z,101494.00
2022-09-03T16:49:02.114Z,101499.06
2022-09-03T16:52:11.036Z,101499.47
2022-09-03T16:55:34.996Z,101500.69
2022-09-03T16:58:40.798Z,101508.03
2022-09-03T17:01:59.106Z,101520.22
2022-09-03T17:05:26.591Z,101520.63
2022-09-03T17:08:41.692Z,101516.19
2022-09-03T17:11:55.565Z,101519.47
2022-09-03T17:15:13.358Z,101523.69
2022-09-03T17:18:45.827Z,101533.13
2022-09-03T17:22:00.165Z,101532.09
2022-09-03T17:25:06.078Z,101529.16
2022-09-03T17:28:10.887Z,101538.38
2022-09-03T17:31:31.680Z,101538.34
2022-09-03T17:34:41.266Z,101549.50
2022-09-03T17:37:46.105Z,101546.78
2022-09-03T17:40:58.634Z,101556.66
2022-09-03T17:44:15.031Z,101548.25
2022-09-03T17:47:39.079Z,101556.03
2022-09-03T17:50:57.264Z,101550.16
2022-09-03T17:54:23.409Z,101561.31
2022-09-03T17:57:38.606Z,101546.56
2022-09-03T18:01:21.669Z,101558.34
2022-09-03T18:04:42.161Z,101556.66
2022-09-03T18:07:55.041Z,101562.75
2022-09-03T18:11:13.600Z,101545.50
2022-09-03T18:14:24.617Z,101559.16
2022-09-03T18:17:46.641Z,101550.97
2022-09-03T18:21:24.450Z,101558.34
2022-09-03T18:24:54.057Z,101556.69
2022-09-03T18:28:20.857Z,101559.00
2022-09-03T18:31:43.856Z,101556.44
2022-09-03T18:35:05.855Z,101564.03
2022-09-03T18:38:26.878Z,101561.91
2022-09-03T18:42:07.000Z,101557.28
2022-09-03T18:46:13.391Z,101553.69
2022-09-03T18:49:48.527Z,101560.00
2022-09-03T18:53:23.014Z,101559.16
2022-09-03T18:56:51.168Z,101564.66
2022-09-03T19:00:28.584Z,101559.59
2022-09-03T19:04:02.146Z,101558.56
2022-09-03T19:07:45.051Z,101547.66
2022-09-03T19:11:09.467Z,101570.97
2022-09-03T19:15:09.058Z,101577.50
2022-09-03T19:18:55.779Z,101580.47
2022-09-03T19:22:26.023Z,101588.69
2022-09-03T19:25:48.516Z,101588.03
2022-09-03T19:29:18.543Z,101590.59
2022-09-03T19:32:49.102Z,101587.63
2022-09-03T19:36:17.973Z,101593.34
2022-09-03T19:40:09.489Z,101598.59
2022-09-03T19:43:57.622Z,101583.88
2022-09-03T19:47:20.952Z,101601.75
2022-09-03T19:50:47.874Z,101608.06
2022-09-03T19:54:09.144Z,101606.19
2022-09-03T19:57:33.513Z,101608.06
2022-09-03T20:00:54.678Z,101611.63
2022-09-03T20:04:19.141Z,101605.53
2022-09-03T20:07:40.588Z,101612.69
2022-09-03T20:10:44.453Z,101583.66
2022-09-03T20:14:05.036Z,101602.59
2022-09-03T20:17:22.636Z,101616.50
2022-09-03T20:20:38.399Z,101613.75
2022-09-03T20:23:49.300Z,101615.44
2022-09-03T20:27:49.311Z,101613.94
2022-09-03T20:30:58.972Z,101614.19
2022-09-03T20:34:30.035Z,101626.59
2022-09-03T20:37:56.464Z,101626.59
2022-09-03T20:41:10.850Z,101620.28
2022-09-03T20:44:31.407Z,101621.13
2022-09-03T20:48:05.581Z,101626.59
2022-09-03T20:51:17.728Z,101624.28
2022-09-03T20:54:32.800Z,101635.66
2022-09-03T20:57:52.845Z,101625.13
2022-09-03T21:01:05.545Z,101640.50
2022-09-03T21:04:39.790Z,101637.75
2022-09-03T21:08:07.709Z,101636.91
2022-09-03T21:11:19.147Z,101632.50
2022-09-03T21:14:24.002Z,101643.22
2022-09-03T21:17:51.779Z,101641.56
2022-09-03T21:21:27.691Z,101654.41
2022-09-03T21:24:34.295Z,101650.19
2022-09-03T21:27:44.165Z,101656.50
2022-09-03T21:30:53.009Z,101648.94
2022-09-03T21:34:05.378Z,101652.94
2022-09-03T21:37:11.942Z,101649.78
2022-09-03T21:40:19.892Z,101666.63
2022-09-03T21:43:42.972Z,101659.06
2022-09-03T21:46:58.325Z,101655.47
2022-09-03T21:50:16.796Z,101653.56
2022-09-03T21:53:26.440Z,101652.31
2022-09-03T21:56:50.732Z,101648.53
2022-09-03T22:00:08.471Z,101659.25
2022-09-03T22:03:16.532Z,101655.66
2022-09-03T22:06:28.675Z,101655.66
2022-09-03T22:09:44.147Z,101657.56
2022-09-03T22:13:02.304Z,101648.94
2022-09-03T22:16:32.694Z,101644.72
2022-09-03T22:19:37.786Z,101646.63
2022-09-03T22:22:56.727Z,101646.22
2022-09-03T22:26:07.525Z,101645.78
2022-09-03T22:29:20.101Z,101650.41
2022-09-03T22:32:36.739Z,101651.25
2022-09-03T22:35:54.807Z,101645.16
2022-09-03T22:39:31.119Z,101647.47
2022-09-03T22:43:05.291Z,101647.47
2022-09-03T22:46:12.982Z,101643.88
2022-09-03T22:49:20.994Z,101647.69
2022-09-03T22:52:39.955Z,101644.31
2022-09-03T22:55:46.088Z,101644.94
2022-09-03T22:59:07.358Z,101652.31
2022-09-03T23:02:29.438Z,101646.22
2022-09-03T23:06:03.509Z,101648.94
2022-09-03T23:09:09.125Z,101651.91
2022-09-03T23:12:20.353Z,101650.44
2022-09-03T23:15:30.134Z,101655.69
2022-09-03T23:18:36.309Z,101634.44
2022-09-03T23:21:57.077Z,101619.69
2022-09-03T23:25:05.678Z,101645.38
2022-09-03T23:28:32.787Z,101649.38
2022-09-03T23:31:35.184Z,101640.53
2022-09-03T23:34:40.805Z,101649.38
2022-09-03T23:38:04.339Z,101647.47
2022-09-03T23:41:25.822Z,101650.44
2022-09-03T23:44:46.679Z,101652.09
2022-09-03T23:48:00.326Z,101655.91
2022-09-03T23:51:35.081Z,101656.09
2022-09-03T23:55:07.919Z,101668.53
2022-09-03T23:58:15.588Z,101668.09
